FOON/MVB METAR and TAF weather

Enter ICAO airport designator
Station Type Date Time Source
FOON METAR 2022/11/26 08:00 UTC NOAA

FOON 260800Z 23004KT 160V280 9000 SCT007 21/21 Q1014


Station Type Date Time Source
FOON Decoded METAR 2022/11/26 08:00 UTC NOAA

Franceville / Mvengue, Gabon (FOON) 01-39S 013-26E
Nov 26, 2022 - 03:00 AM EST / 2022.11.26 0800 UTC
Wind: from the SW (230 degrees) at 5 MPH (4 KT) (direction variable):0
Visibility: 5 mile(s):0
Sky conditions: partly cloudy
Temperature: 69 F (21 C)
Dew Point: 69 F (21 C)
Relative Humidity: 100%
Pressure (altimeter): 29.94 in. Hg (1014 hPa)
ob: FOON 260800Z 23004KT 160V280 9000 SCT007 21/21 Q1014
cycle: 8

Station Type Date Time Source
FOON TAF 2012/02/17 18:21 UTC NOAA

TAF TAF FOON 151600Z 1518/1618 20004KT 9999 BKN006
TEMPO 1603/1607 0200 FG OVC002
BECMG 1612/1614 TS SCT015 FEW020CB BKN030

Example: see airport list